Дайбира

Карта отелей и гостиниц, располагающихся рядом с аэропортом Дайбира :



Дайбира Хабаровский край 51° 11' 0.8988" N, 138° 50' 59.82" E

Дайбира Хабаровский край 51° 11' 0.8988" N, 138° 50' 59.82" E
Код аэродрома ИКАО: 
HEY1
Код аэродрома RU: 
ХЕЫ1
Координаты: 
N51.18358° E138.84995°
Превышение над уровнем моря : 
98
Основная полоса: 
10/28
Курс магнитный: 
102,1/282,1
Длина основной ВПП: 
22
Ширина основной ВПП: 
22
Покрытие основной ВПП: 
Твёрдое
Тип: 
Вертодром
Освещение ВПП: 
Нет
Класс аэродрома: 
Статус: 
Действующий
Принадлежность: 
ГА
Сайт: 
E-mail аэродрома: 
Страна: 
Россия
Регион: 
Хабаровский край
Город: 
Дополнительная информация: 
Оператор: нет данных.

Найти трансфер

С помощью этой формы Вы можете найти трансфер из аэропорта Дайбира в город, аэропорт или вокзал:

Карта места

Javascript is required to view this map.

Погода в аэропортах:

Авиационная погода в аэропорту Байкал

Регион: 
Погода METAR: 
UIUU 210100Z 00000MPS 1800 1300NE R26/1300N BR NSC M24/M27 Q1028 R26/820550 NOSIG RMK QFE727/0969
Время наблюдения: 
2020-02-21T01:00:00Z
Температура C: 
-24.0
Точка росы: 
-27.0
Направление ветра: 
0
Скорость ветра: 
0
Метеорологическая видимость: 
1.12
Явления погоды: 
BR
Условия полета: 
IFR
Аэропорт подробнее: 

Авиационная погода в Киркенесе

Регион: 
Погода METAR: 
ENKR 210350Z AUTO 17018KT 7000 -SN VV015 M07/M08 Q0986 RMK WIND 731FT 18032KT
Время наблюдения: 
2020-02-21T03:50:00Z
Температура C: 
-7.0
Точка росы: 
-8.0
Направление ветра: 
170
Скорость ветра: 
18
Метеорологическая видимость: 
4.35
Явления погоды: 
-SN
Условия полета: 
LIFR

Авиационная погода в Бресте

Регион: 
Погода METAR: 
UMBB 210400Z 17002MPS 4800 BR NSC M01/M02 Q1017 NOSIG
Время наблюдения: 
2020-02-21T04:00:00Z
Температура C: 
-1.0
Точка росы: 
-2.0
Направление ветра: 
170
Скорость ветра: 
4
Метеорологическая видимость: 
2.98
Явления погоды: 
BR
Условия полета: 
IFR
Аэропорт подробнее: 

Авиационная погода в Анапе

Регион: 
Погода METAR: 
URKA 210400Z 07002MPS 4700 BR BKN003 02/02 Q1016 R04/010065 TEMPO 1000 BR BKN002 BKN020CB RMK QBB090 OBST OBSC QFE758/1011
Время наблюдения: 
2020-02-21T04:00:00Z
Температура C: 
2.0
Точка росы: 
2.0
Направление ветра: 
70
Скорость ветра: 
4
Метеорологическая видимость: 
2.92
Явления погоды: 
BR
Условия полета: 
LIFR
Аэропорт подробнее: